Timber Mountain, Nevada Weather observations

Data are for 10 minute period ending at time listed.
 Day   Time   Solar   Ave.   Ave.  Ave.  Vector  Max.   Baro.   Total    
  of    of     Rad.   Air    Rel.  Wind   Wind   Wind  Press.  Precip.   
Year   Day            Temp.  Hum.  Speed  Dir.   Gust                    
2014   (PST)  Kw/m2    F      %     mph   deg.    mph    mb.     in.     
-------------------------------------------------------------------------
 108   10:00   0.73   60.6    22   10.0   133    21.0   808.4    0.00 
 108   11:00   0.72   62.7    20    8.0   154    17.0   808.6    0.00 
 108   12:00   0.76   63.4    18    8.8   170    21.8   808.6    0.00 
 108   13:00   0.93   64.1    18    9.6   151    24.3   808.3    0.00 
 108   14:00   0.73   64.1    24    9.5   168    25.7   808.0    0.00 
 108   15:00   0.74   64.2    26    9.2   199    22.1   807.4    0.00 
 108   16:00   0.52   63.3    25    9.3   207    20.9   807.1    0.00 
 108   17:00   0.26   60.5    24    8.5   205    19.1   807.4    0.00 
 108   18:00   0.17   58.7    24   10.9   140    19.1   807.7    0.00 
 108   19:00   0.01   55.1    28   11.4   144    21.7   808.1    0.00 
 108   20:00   0.00   54.4    30   11.8   144    22.0   808.7    0.00 
 108   21:00   0.00   54.3    34    7.3   167    16.1   809.2    0.00 
 108   22:00   0.00   53.9    35    7.6   166    17.4   809.3    0.00 
 108   23:00   0.00   52.7    36    3.6   211    11.4   809.4    0.00 
 109    0:00   0.00   52.1    36    3.2   158    11.3   809.5    0.00 
 109    1:00   0.00   49.4    42    3.7    84    10.8   809.5    0.00 
 109    2:00   0.00   49.0    44    5.3    99    11.7   809.1    0.00 
 109    3:00   0.00   48.4    47    4.3    83     9.1   809.5    0.00 
 109    4:00   0.00   49.4    46    5.5   103    11.5   809.6    0.00 
 109    5:00   0.00   48.9    49    5.9    95    12.0   809.7    0.00 
 109    6:00   0.04   48.7    50    4.4    97     8.1   810.2    0.00 
 109    7:00   0.23   55.2    40    4.4   103     8.3   810.6    0.00 
 109    8:00   0.45   58.7    34    4.7   151     9.7   810.7    0.00 
 109    9:00   0.63   60.0    32    6.2   233    11.6   811.1    0.00 

Return to Timber Mountain graphs page.


Western Regional Climate Center,wrcc@dri.edu